createdAt,value
2023-01-30T00:00:58.137Z,-4.13
2023-01-30T00:03:25.444Z,-4.04
2023-01-30T00:05:52.881Z,-4.09
2023-01-30T00:08:20.039Z,-4.13
2023-01-30T00:10:46.888Z,-4.19
2023-01-30T00:13:14.388Z,-4.23
2023-01-30T00:15:43.081Z,-4.19
2023-01-30T00:18:10.286Z,-4.25
2023-01-30T00:20:38.117Z,-4.27
2023-01-30T00:23:05.612Z,-4.30
2023-01-30T00:25:32.368Z,-4.34
2023-01-30T00:28:00.444Z,-4.37
2023-01-30T00:30:27.084Z,-4.42
2023-01-30T00:32:55.577Z,-4.36
2023-01-30T00:35:22.081Z,-4.35
2023-01-30T00:37:48.792Z,-4.37
2023-01-30T00:40:15.221Z,-4.41
2023-01-30T00:42:44.020Z,-4.37
2023-01-30T00:45:11.658Z,-4.41
2023-01-30T00:47:38.531Z,-4.44
2023-01-30T00:50:05.642Z,-4.49
2023-01-30T00:52:32.053Z,-4.50
2023-01-30T00:54:58.539Z,-4.50
2023-01-30T00:57:24.981Z,-4.47
2023-01-30T00:59:51.583Z,-4.49
2023-01-30T01:02:18.138Z,-4.50
2023-01-30T01:04:44.607Z,-4.49
2023-01-30T01:07:12.330Z,-4.45
2023-01-30T01:09:39.340Z,-4.32
2023-01-30T01:12:06.862Z,-4.26
2023-01-30T01:14:33.892Z,-4.22
2023-01-30T01:17:00.566Z,-4.14
2023-01-30T01:19:28.258Z,-4.21
2023-01-30T01:21:54.869Z,-4.26
2023-01-30T01:24:21.309Z,-4.28
2023-01-30T01:26:49.052Z,-4.23
2023-01-30T01:29:17.225Z,-4.23
2023-01-30T01:31:44.718Z,-4.19
2023-01-30T01:34:12.026Z,-4.21
2023-01-30T01:36:54.922Z,-4.15
2023-01-30T01:39:21.853Z,-4.13
2023-01-30T01:41:48.264Z,-4.15
2023-01-30T01:44:14.957Z,-4.15
2023-01-30T01:46:55.706Z,-4.19
2023-01-30T01:49:35.101Z,-4.15
2023-01-30T01:52:05.716Z,-4.11
2023-01-30T01:54:47.245Z,-4.09
2023-01-30T01:57:40.179Z,-4.12
2023-01-30T02:00:08.296Z,-4.11
2023-01-30T02:02:37.179Z,-3.99
2023-01-30T02:05:04.723Z,-3.91
2023-01-30T02:07:41.277Z,-3.88
2023-01-30T02:10:12.785Z,-3.88
2023-01-30T02:12:41.507Z,-3.89
2023-01-30T02:15:08.901Z,-3.81
2023-01-30T02:17:35.482Z,-3.82
2023-01-30T02:20:25.155Z,-3.88
2023-01-30T02:23:07.953Z,-3.89
2023-01-30T02:25:58.500Z,-3.85
2023-01-30T02:28:43.954Z,-3.78
2023-01-30T02:31:47.483Z,-3.85
2023-01-30T02:34:41.933Z,-3.87
2023-01-30T02:37:31.799Z,-3.91
2023-01-30T02:40:23.515Z,-3.95
2023-01-30T02:42:52.775Z,-4.02
2023-01-30T02:45:42.111Z,-4.03
2023-01-30T02:48:24.778Z,-3.87
2023-01-30T02:50:59.150Z,-3.87
2023-01-30T02:53:26.062Z,-3.92
2023-01-30T02:55:52.503Z,-3.96
2023-01-30T02:58:22.952Z,-3.99
2023-01-30T03:01:27.210Z,-4.03
2023-01-30T03:04:22.147Z,-4.05
2023-01-30T03:07:01.471Z,-3.96
2023-01-30T03:09:33.535Z,-3.97
2023-01-30T03:12:10.054Z,-4.05
2023-01-30T03:14:51.690Z,-4.06
2023-01-30T03:17:22.469Z,-4.06
2023-01-30T03:19:48.920Z,-4.08
2023-01-30T03:22:15.529Z,-4.10
2023-01-30T03:24:42.192Z,-4.15
2023-01-30T03:27:13.210Z,-4.19
2023-01-30T03:29:40.451Z,-4.26
2023-01-30T03:32:07.369Z,-4.20
2023-01-30T03:34:33.940Z,-4.26
2023-01-30T03:37:02.098Z,-4.26
2023-01-30T03:39:28.857Z,-4.26
2023-01-30T03:41:55.583Z,-4.22
2023-01-30T03:44:22.120Z,-4.18
2023-01-30T03:46:48.850Z,-4.07
2023-01-30T03:49:15.655Z,-4.00
2023-01-30T03:51:42.115Z,-3.94
2023-01-30T03:54:08.626Z,-3.87
2023-01-30T03:56:35.025Z,-3.82
2023-01-30T03:59:01.628Z,-3.74
2023-01-30T04:01:28.600Z,-3.70
2023-01-30T04:03:58.166Z,-3.66
2023-01-30T04:06:24.697Z,-3.39
2023-01-30T04:08:55.237Z,-3.49
2023-01-30T04:11:21.900Z,-3.44
2023-01-30T04:13:48.667Z,-3.35
2023-01-30T04:16:17.915Z,-3.31
2023-01-30T04:18:44.625Z,-3.31
2023-01-30T04:21:11.555Z,-3.23
2023-01-30T04:23:38.023Z,-3.18
2023-01-30T04:26:05.756Z,-3.11
2023-01-30T04:28:32.715Z,-3.02
2023-01-30T04:30:59.436Z,-3.02
2023-01-30T04:33:26.965Z,-3.01
2023-01-30T04:35:54.966Z,-2.96
2023-01-30T04:38:22.845Z,-2.93
2023-01-30T04:40:50.427Z,-2.92
2023-01-30T04:43:17.091Z,-2.90
2023-01-30T04:45:47.092Z,-2.85
2023-01-30T04:48:13.720Z,-2.72
2023-01-30T04:50:41.672Z,-2.67
2023-01-30T04:53:08.583Z,-2.60
2023-01-30T04:55:35.380Z,-2.47
2023-01-30T04:58:01.897Z,-2.38
2023-01-30T05:00:29.048Z,-2.27
2023-01-30T05:02:55.504Z,-2.13
2023-01-30T05:05:26.738Z,-2.07
2023-01-30T05:07:54.824Z,-2.04
2023-01-30T05:10:21.980Z,-1.99
2023-01-30T05:12:48.473Z,-2.01
2023-01-30T05:15:15.251Z,-1.98
2023-01-30T05:17:44.389Z,-1.96
2023-01-30T05:20:13.442Z,-1.97
2023-01-30T05:22:40.038Z,-1.92
2023-01-30T05:25:07.126Z,-1.87
2023-01-30T05:27:33.646Z,-1.81
2023-01-30T05:30:00.293Z,-1.79
2023-01-30T05:32:26.749Z,-1.79
2023-01-30T05:34:53.692Z,-1.80
2023-01-30T05:37:20.287Z,-1.80
2023-01-30T05:39:46.931Z,-1.82
2023-01-30T05:42:15.710Z,-1.83
2023-01-30T05:44:42.312Z,-1.83
2023-01-30T05:47:08.848Z,-1.81
2023-01-30T05:49:35.254Z,-1.81
2023-01-30T05:52:01.843Z,-1.74
2023-01-30T05:54:28.469Z,-1.80
2023-01-30T05:56:55.543Z,-1.72
2023-01-30T05:59:22.047Z,-1.70
2023-01-30T06:01:48.384Z,-1.65
2023-01-30T06:04:14.822Z,-1.67
2023-01-30T06:06:41.291Z,-1.61
2023-01-30T06:09:10.545Z,-1.58
2023-01-30T06:11:37.183Z,-1.54
2023-01-30T06:14:03.860Z,-1.54
2023-01-30T06:16:30.460Z,-1.55
2023-01-30T06:18:57.354Z,-1.54
2023-01-30T06:21:23.885Z,-1.52
2023-01-30T06:23:50.443Z,-1.48
2023-01-30T06:26:16.995Z,-1.46
2023-01-30T06:28:43.613Z,-1.42
2023-01-30T06:31:10.172Z,-1.38
2023-01-30T06:33:36.794Z,-1.34
2023-01-30T06:36:03.869Z,-1.40
2023-01-30T06:38:30.548Z,-1.43
2023-01-30T06:40:57.135Z,-1.40
2023-01-30T06:43:23.763Z,-1.32
2023-01-30T06:45:50.335Z,-1.27
2023-01-30T06:48:17.016Z,-1.31
2023-01-30T06:50:46.623Z,-1.28
2023-01-30T06:53:13.091Z,-1.16
2023-01-30T06:55:40.217Z,-1.15
2023-01-30T06:58:09.423Z,-1.14
2023-01-30T07:00:38.120Z,-1.15
2023-01-30T07:03:04.736Z,-1.17
2023-01-30T07:05:31.271Z,-1.17
2023-01-30T07:07:57.757Z,-1.09
2023-01-30T07:10:24.480Z,-1.06
2023-01-30T07:12:51.055Z,-1.01
2023-01-30T07:15:18.008Z,-0.96
2023-01-30T07:17:44.611Z,-0.93
2023-01-30T07:20:11.438Z,-0.87
2023-01-30T07:22:38.128Z,-0.86
2023-01-30T07:25:06.498Z,-0.84
2023-01-30T07:27:33.882Z,-0.82
2023-01-30T07:30:01.865Z,-0.87
2023-01-30T07:32:28.614Z,-0.85
2023-01-30T07:34:55.156Z,-0.78
2023-01-30T07:37:21.596Z,-0.77
2023-01-30T07:39:48.099Z,-0.73
2023-01-30T07:42:14.799Z,-0.69
2023-01-30T07:44:41.325Z,-0.66
2023-01-30T07:47:08.307Z,-0.63
2023-01-30T07:49:34.844Z,-0.61
2023-01-30T07:52:01.288Z,-0.60
2023-01-30T07:54:27.776Z,-0.56
2023-01-30T07:56:54.367Z,-0.57
2023-01-30T07:59:20.769Z,-0.56
2023-01-30T08:01:47.505Z,-0.53
2023-01-30T08:04:14.009Z,-0.50
2023-01-30T08:06:41.387Z,-0.49
2023-01-30T08:09:08.043Z,-0.48
2023-01-30T08:11:36.025Z,-0.43
2023-01-30T08:14:03.164Z,-0.40
2023-01-30T08:16:30.205Z,-0.36
2023-01-30T08:18:56.660Z,-0.28
2023-01-30T08:21:24.304Z,-0.24
2023-01-30T08:23:50.853Z,-0.19
2023-01-30T08:26:18.638Z,-0.18
2023-01-30T08:28:45.194Z,-0.13
2023-01-30T08:31:13.831Z,-0.05
2023-01-30T08:33:40.483Z,-0.04
2023-01-30T08:36:07.407Z,-0.04
2023-01-30T08:38:33.955Z,-0.01
2023-01-30T08:41:00.633Z,0.04
2023-01-30T08:43:28.287Z,0.06
2023-01-30T08:45:55.443Z,0.00
2023-01-30T08:48:22.442Z,0.01
2023-01-30T08:50:55.239Z,0.06
2023-01-30T08:53:22.519Z,0.08
2023-01-30T08:55:53.101Z,0.10
2023-01-30T08:58:20.831Z,0.18
2023-01-30T09:00:50.642Z,0.17
2023-01-30T09:03:18.473Z,0.26
2023-01-30T09:05:45.261Z,0.32
2023-01-30T09:08:12.501Z,0.39
2023-01-30T09:10:39.041Z,0.55
2023-01-30T09:13:07.808Z,0.63
2023-01-30T09:15:34.465Z,0.70
2023-01-30T09:18:02.056Z,0.65
2023-01-30T09:20:28.551Z,0.79
2023-01-30T09:22:56.216Z,0.97
2023-01-30T09:25:22.826Z,1.17
2023-01-30T09:27:50.492Z,1.21
2023-01-30T09:30:17.842Z,1.26
2023-01-30T09:32:46.008Z,1.57
2023-01-30T09:35:12.476Z,1.59
2023-01-30T09:37:39.127Z,1.74
2023-01-30T09:40:06.475Z,1.81
2023-01-30T09:42:53.684Z,1.65
2023-01-30T09:45:22.574Z,1.66
2023-01-30T09:48:23.618Z,1.55
2023-01-30T09:51:18.254Z,1.50
2023-01-30T09:54:15.659Z,1.43
2023-01-30T09:56:42.573Z,1.42
2023-01-30T10:02:38.778Z,1.55
2023-01-30T10:05:06.609Z,1.65
2023-01-30T10:08:01.626Z,1.81
2023-01-30T10:11:10.451Z,1.97
2023-01-30T10:13:41.033Z,1.96
2023-01-30T10:16:20.157Z,1.96
2023-01-30T10:19:26.175Z,2.12
2023-01-30T10:22:32.820Z,2.12
2023-01-30T10:25:06.003Z,2.14
2023-01-30T10:27:35.116Z,2.09
2023-01-30T10:30:05.990Z,2.05
2023-01-30T10:32:39.111Z,2.12
2023-01-30T10:35:22.279Z,2.21
2023-01-30T10:38:19.579Z,2.18
2023-01-30T10:40:54.857Z,2.17
2023-01-30T10:43:47.496Z,2.28
2023-01-30T10:46:22.579Z,2.17
2023-01-30T10:48:52.733Z,2.17
2023-01-30T10:51:38.335Z,2.29
2023-01-30T10:54:28.324Z,2.37
2023-01-30T10:57:42.066Z,2.47
2023-01-30T11:00:27.059Z,2.51
2023-01-30T11:03:02.145Z,2.50
2023-01-30T11:05:39.121Z,2.55
2023-01-30T11:08:18.204Z,2.57
2023-01-30T11:10:44.759Z,2.59
2023-01-30T11:13:21.010Z,2.65
2023-01-30T11:15:50.941Z,2.70
2023-01-30T11:19:14.017Z,2.75
2023-01-30T11:21:16.726Z,2.82
2023-01-30T11:23:44.189Z,2.84
2023-01-30T11:26:29.495Z,2.83
2023-01-30T11:28:59.711Z,2.82
2023-01-30T11:31:40.932Z,2.81
2023-01-30T11:34:17.105Z,2.77
2023-01-30T11:36:44.354Z,2.76
2023-01-30T11:39:13.720Z,2.75
2023-01-30T11:41:56.197Z,2.78
2023-01-30T11:44:27.549Z,2.83
2023-01-30T11:46:55.009Z,2.83
2023-01-30T11:49:46.765Z,2.87
2023-01-30T11:52:10.898Z,2.89
2023-01-30T11:54:41.687Z,2.89
2023-01-30T11:57:14.189Z,2.83
2023-01-30T11:59:59.245Z,2.87
2023-01-30T12:02:34.480Z,2.76
2023-01-30T12:05:34.458Z,2.73
2023-01-30T12:08:43.108Z,2.68
2023-01-30T12:11:38.764Z,2.64
2023-01-30T12:14:33.955Z,2.63
2023-01-30T12:17:11.771Z,2.65
2023-01-30T12:20:14.152Z,2.53
2023-01-30T12:23:22.414Z,2.43
2023-01-30T12:25:57.230Z,2.44
2023-01-30T12:28:41.513Z,2.42
2023-01-30T12:31:18.989Z,2.28
2023-01-30T12:33:48.094Z,2.34
2023-01-30T12:36:20.484Z,2.28
2023-01-30T12:38:55.876Z,2.26
2023-01-30T12:41:37.587Z,2.21
2023-01-30T12:44:22.523Z,2.17
2023-01-30T12:47:00.018Z,2.22
2023-01-30T12:49:35.702Z,2.26
2023-01-30T12:52:39.551Z,2.22
2023-01-30T12:55:36.723Z,2.22
2023-01-30T12:58:05.551Z,2.17
2023-01-30T13:01:04.925Z,2.11
2023-01-30T13:04:19.001Z,2.03
2023-01-30T13:07:02.211Z,1.98
2023-01-30T13:09:37.731Z,1.92
2023-01-30T13:12:20.147Z,1.83
2023-01-30T13:15:00.831Z,1.77
2023-01-30T13:17:54.718Z,1.70
2023-01-30T13:20:48.336Z,1.62
2023-01-30T13:23:32.984Z,1.57
2023-01-30T13:26:09.044Z,1.63
2023-01-30T13:28:44.184Z,1.59
2023-01-30T13:31:16.068Z,1.48
2023-01-30T13:33:45.632Z,1.46
2023-01-30T13:36:21.233Z,1.41
2023-01-30T13:39:36.603Z,1.37
2023-01-30T13:42:37.435Z,1.38
2023-01-30T13:45:08.532Z,1.35
2023-01-30T13:47:48.939Z,1.37
2023-01-30T13:50:41.560Z,1.37
2023-01-30T13:53:33.955Z,1.38
2023-01-30T13:56:40.938Z,1.44
2023-01-30T13:59:22.168Z,1.41
2023-01-30T14:02:07.685Z,1.44
2023-01-30T14:04:40.570Z,1.39
2023-01-30T14:07:29.707Z,1.45
2023-01-30T14:10:17.934Z,1.45
2023-01-30T14:12:46.584Z,1.43
2023-01-30T14:15:15.936Z,1.39
2023-01-30T14:18:04.751Z,1.41
2023-01-30T14:20:36.902Z,1.44
2023-01-30T14:23:21.193Z,1.47
2023-01-30T14:25:52.626Z,1.51
2023-01-30T14:28:19.151Z,1.49
2023-01-30T14:30:45.655Z,1.48
2023-01-30T14:33:21.215Z,1.49
2023-01-30T14:36:02.811Z,1.54
2023-01-30T14:38:34.488Z,1.53
2023-01-30T14:41:01.049Z,1.53
2023-01-30T14:43:42.884Z,1.52
2023-01-30T14:46:18.211Z,1.53
2023-01-30T14:48:47.776Z,1.52
2023-01-30T14:51:20.403Z,1.50
2023-01-30T14:54:14.872Z,1.49
2023-01-30T14:57:02.952Z,1.48
2023-01-30T14:59:34.340Z,1.48
2023-01-30T15:02:02.982Z,1.44
2023-01-30T15:04:33.268Z,1.46
2023-01-30T15:07:06.423Z,1.46
2023-01-30T15:09:33.943Z,1.49
2023-01-30T15:12:37.163Z,1.47
2023-01-30T15:15:38.228Z,1.49
2023-01-30T15:18:42.295Z,1.48
2023-01-30T15:21:33.469Z,1.54
2023-01-30T15:24:21.234Z,1.58
2023-01-30T15:26:53.756Z,1.57
2023-01-30T15:29:33.132Z,1.63
2023-01-30T15:32:17.637Z,1.68
2023-01-30T15:35:10.438Z,1.72
2023-01-30T15:37:40.325Z,1.76
2023-01-30T15:40:16.283Z,1.80
2023-01-30T15:42:49.132Z,1.73
2023-01-30T15:45:34.540Z,1.76
2023-01-30T15:48:29.006Z,1.76
2023-01-30T15:51:00.200Z,1.83
2023-01-30T15:53:40.125Z,1.76
2023-01-30T15:56:10.601Z,1.70
2023-01-30T15:58:42.403Z,1.64
2023-01-30T16:01:11.361Z,1.60
2023-01-30T16:03:42.766Z,1.57
2023-01-30T16:06:25.288Z,1.49
2023-01-30T16:09:03.516Z,1.48
2023-01-30T16:11:34.644Z,1.52
2023-01-30T16:14:01.250Z,1.49
2023-01-30T16:16:29.161Z,1.47
2023-01-30T16:19:03.002Z,1.46
2023-01-30T16:21:36.923Z,1.44
2023-01-30T16:24:06.640Z,1.44
2023-01-30T16:26:36.245Z,1.44
2023-01-30T16:29:06.342Z,1.44
2023-01-30T16:31:35.833Z,1.44
2023-01-30T16:34:02.822Z,1.39
2023-01-30T16:36:32.964Z,1.34
2023-01-30T16:38:59.436Z,1.31
2023-01-30T16:41:36.285Z,1.31
2023-01-30T16:44:42.024Z,1.29
2023-01-30T16:47:23.515Z,1.28
2023-01-30T16:49:53.432Z,1.29
2023-01-30T16:52:24.980Z,1.34
2023-01-30T16:54:54.251Z,1.32
2023-01-30T16:57:28.480Z,1.29
2023-01-30T16:59:56.465Z,1.28
2023-01-30T17:02:34.112Z,1.28
2023-01-30T17:05:27.262Z,1.27
2023-01-30T17:07:55.258Z,1.24
2023-01-30T17:10:28.013Z,1.26
2023-01-30T17:12:56.292Z,1.27
2023-01-30T17:15:27.570Z,1.27
2023-01-30T17:17:54.076Z,1.26
2023-01-30T17:20:20.730Z,1.28
2023-01-30T17:22:50.412Z,1.26
2023-01-30T17:25:41.763Z,1.30
2023-01-30T17:28:15.784Z,1.32
2023-01-30T17:30:42.787Z,1.34
2023-01-30T17:33:09.230Z,1.35
2023-01-30T17:35:35.844Z,1.36
2023-01-30T17:38:06.316Z,1.37
2023-01-30T17:40:37.971Z,1.35
2023-01-30T17:43:06.440Z,1.35
2023-01-30T17:45:34.131Z,1.34
2023-01-30T17:48:00.885Z,1.34
2023-01-30T17:50:27.404Z,1.30
2023-01-30T17:52:54.102Z,1.29
2023-01-30T17:55:21.105Z,1.32
2023-01-30T17:57:48.567Z,1.28
2023-01-30T18:00:18.407Z,1.19
2023-01-30T18:02:45.380Z,1.09
2023-01-30T18:05:13.502Z,1.07
2023-01-30T18:07:41.026Z,1.09
2023-01-30T18:10:11.992Z,1.14
2023-01-30T18:12:40.114Z,1.26
2023-01-30T18:15:07.255Z,1.35
2023-01-30T18:17:37.036Z,1.42
2023-01-30T18:20:03.665Z,1.43
2023-01-30T18:22:30.059Z,1.41
2023-01-30T18:24:56.543Z,1.44
2023-01-30T18:27:22.960Z,1.47
2023-01-30T18:29:50.646Z,1.45
2023-01-30T18:32:17.068Z,1.45
2023-01-30T18:34:43.933Z,1.47
2023-01-30T18:37:10.450Z,1.53
2023-01-30T18:39:38.842Z,1.53
2023-01-30T18:42:05.507Z,1.48
2023-01-30T18:44:32.288Z,1.44
2023-01-30T18:46:58.919Z,1.38
2023-01-30T18:49:26.384Z,1.35
2023-01-30T18:51:55.618Z,1.33
2023-01-30T18:54:22.089Z,1.32
2023-01-30T18:56:48.677Z,1.31
2023-01-30T18:59:15.167Z,1.29
2023-01-30T19:01:41.859Z,1.29
2023-01-30T19:04:11.055Z,1.28
2023-01-30T19:06:45.125Z,1.28
2023-01-30T19:09:16.675Z,1.28
2023-01-30T19:11:43.089Z,1.26
2023-01-30T19:14:09.660Z,1.25
2023-01-30T19:16:38.828Z,1.26
2023-01-30T19:19:06.740Z,1.25
2023-01-30T19:21:33.926Z,1.30
2023-01-30T19:24:04.704Z,1.30
2023-01-30T19:26:31.154Z,1.28
2023-01-30T19:28:57.571Z,1.32
2023-01-30T19:31:24.370Z,1.27
2023-01-30T19:33:56.394Z,1.26
2023-01-30T19:36:25.282Z,1.27
2023-01-30T19:38:52.509Z,1.28
2023-01-30T19:41:25.220Z,1.34
2023-01-30T19:43:53.704Z,1.36
2023-01-30T19:46:20.701Z,1.41
2023-01-30T19:48:47.938Z,1.41
2023-01-30T19:51:17.849Z,1.41
2023-01-30T19:53:47.457Z,1.41
2023-01-30T19:56:13.970Z,1.40
2023-01-30T19:58:40.623Z,1.38
2023-01-30T20:01:14.088Z,1.39
2023-01-30T20:03:42.135Z,1.38
2023-01-30T20:06:21.221Z,1.38
2023-01-30T20:08:49.633Z,1.43
2023-01-30T20:11:18.254Z,1.47
2023-01-30T20:13:45.971Z,1.48
2023-01-30T20:16:14.830Z,1.45
2023-01-30T20:18:41.789Z,1.51
2023-01-30T20:21:09.446Z,1.53
2023-01-30T20:23:36.658Z,1.52
2023-01-30T20:26:07.403Z,1.47
2023-01-30T20:28:34.750Z,1.46
2023-01-30T20:31:08.445Z,1.48
2023-01-30T20:33:35.503Z,1.51
2023-01-30T20:36:04.233Z,1.52
2023-01-30T20:38:33.303Z,1.48
2023-01-30T20:41:06.120Z,1.48
2023-01-30T20:43:33.975Z,1.46
2023-01-30T20:46:08.881Z,1.44
2023-01-30T20:48:37.366Z,1.46
2023-01-30T20:51:15.923Z,1.45
2023-01-30T20:54:04.201Z,1.47
2023-01-30T20:56:34.918Z,1.46
2023-01-30T20:59:03.429Z,1.48
2023-01-30T21:01:29.963Z,1.47
2023-01-30T21:03:57.167Z,1.46
2023-01-30T21:06:41.263Z,1.44
2023-01-30T21:09:12.555Z,1.42
2023-01-30T21:11:39.618Z,1.46
2023-01-30T21:14:06.337Z,1.47
2023-01-30T21:16:34.595Z,1.45
2023-01-30T21:19:04.508Z,1.42
2023-01-30T21:21:37.664Z,1.42
2023-01-30T21:24:09.539Z,1.41
2023-01-30T21:26:38.517Z,1.37
2023-01-30T21:29:07.007Z,1.33
2023-01-30T21:31:34.724Z,1.34
2023-01-30T21:34:01.666Z,1.34
2023-01-30T21:36:28.752Z,1.34
2023-01-30T21:38:55.553Z,1.35
2023-01-30T21:41:29.812Z,1.32
2023-01-30T21:43:56.580Z,1.32
2023-01-30T21:46:23.303Z,1.30
2023-01-30T21:48:49.972Z,1.31
2023-01-30T21:51:17.357Z,1.31
2023-01-30T21:53:44.021Z,1.33
2023-01-30T21:56:12.758Z,1.34
2023-01-30T21:58:39.150Z,1.35
2023-01-30T22:01:07.570Z,1.34
2023-01-30T22:03:35.629Z,1.36
2023-01-30T22:06:02.065Z,1.36
2023-01-30T22:08:28.822Z,1.37
2023-01-30T22:11:06.387Z,1.36
2023-01-30T22:13:34.270Z,1.37
2023-01-30T22:16:03.001Z,1.42
2023-01-30T22:18:29.880Z,1.41
2023-01-30T22:21:08.506Z,1.43
2023-01-30T22:23:38.586Z,1.52
2023-01-30T22:26:06.209Z,1.66
2023-01-30T22:28:33.513Z,1.73
2023-01-30T22:31:05.786Z,1.77
2023-01-30T22:33:33.088Z,1.80
2023-01-30T22:36:00.859Z,1.83
2023-01-30T22:38:27.807Z,1.81
2023-01-30T22:41:02.820Z,1.79
2023-01-30T22:43:30.573Z,1.81
2023-01-30T22:46:06.143Z,1.85
2023-01-30T22:48:33.463Z,1.86
2023-01-30T22:51:04.055Z,1.87
2023-01-30T22:53:38.396Z,1.89
2023-01-30T22:56:10.601Z,1.85
2023-01-30T22:58:38.205Z,1.84
2023-01-30T23:01:05.113Z,1.81
2023-01-30T23:03:32.278Z,1.82
2023-01-30T23:06:00.067Z,1.80
2023-01-30T23:08:30.194Z,1.79
2023-01-30T23:10:58.302Z,1.80
2023-01-30T23:13:27.218Z,1.80
2023-01-30T23:15:53.622Z,1.83
2023-01-30T23:18:20.007Z,1.85
2023-01-30T23:20:46.843Z,1.81
2023-01-30T23:23:13.435Z,1.77
2023-01-30T23:25:42.407Z,1.78
2023-01-30T23:28:09.151Z,1.84
2023-01-30T23:30:39.089Z,1.82
2023-01-30T23:33:05.605Z,1.80
2023-01-30T23:35:32.873Z,1.74
2023-01-30T23:37:59.274Z,1.73
2023-01-30T23:40:25.739Z,1.92
2023-01-30T23:42:53.418Z,1.87
2023-01-30T23:45:20.292Z,1.82
2023-01-30T23:47:46.899Z,1.85
2023-01-30T23:50:13.456Z,1.78
2023-01-30T23:52:39.951Z,1.79
2023-01-30T23:55:06.939Z,1.87
2023-01-30T23:57:33.380Z,1.90
2023-01-30T23:59:59.837Z,1.89
